Time;durP1;ratioP1;P1;durP2;ratioP2;P2;SDS_P1;SDS_P2;PMS_P1;PMS_P2;Temp;Humidity;BMP_temperature;BMP_pressure;BME280_temperature;BME280_humidity;BME280_pressure;Samples;Min_cycle;Max_cycle;Signal;HPM_P1;HPM_P2
2023/03/10 00:00:07;;;;;;;1.20;0.75;;;;;;;16.63;45.66;98903.69;6292539;22;20443;-80
2023/03/10 00:02:33;;;;;;;0.70;0.55;;;;;;;16.62;45.65;98902.00;6295617;22;20374;-80
2023/03/10 00:05:00;;;;;;;2.53;0.75;;;;;;;16.61;45.60;98902.06;6294584;22;20011;-80
2023/03/10 00:07:25;;;;;;;3.88;0.88;;;;;;;16.61;45.63;98905.53;6289967;22;20443;-79
2023/03/10 00:09:51;;;;;;;0.90;0.65;;;;;;;16.62;45.69;98912.41;6286409;22;20017;-78
2023/03/10 00:12:16;;;;;;;0.93;0.68;;;;;;;16.60;45.64;98913.34;6284549;22;20097;-79
2023/03/10 00:14:51;;;;;;;0.90;0.68;;;;;;;16.60;45.69;98913.34;5135135;27;20815;-79
2023/03/10 00:17:16;;;;;;;2.08;0.70;;;;;;;16.60;45.71;98911.59;5080394;28;20040;-78
2023/03/10 00:19:42;;;;;;;1.02;0.60;;;;;;;16.60;45.59;98911.59;5079761;28;20020;-79
2023/03/10 00:22:07;;;;;;;0.98;0.50;;;;;;;16.60;45.69;98910.75;5079678;28;20073;-79
2023/03/10 00:24:32;;;;;;;2.80;0.80;;;;;;;16.58;45.60;98916.00;5079271;28;20062;-79
2023/03/10 00:26:58;;;;;;;0.90;0.60;;;;;;;16.59;45.44;98917.72;5078663;28;20028;-79
2023/03/10 00:29:23;;;;;;;0.70;0.63;;;;;;;16.58;45.70;98910.81;5095606;28;20035;-79
2023/03/10 00:31:49;;;;;;;0.50;0.40;;;;;;;16.59;45.76;98909.06;5062311;28;20509;-80
2023/03/10 00:34:14;;;;;;;1.73;0.80;;;;;;;16.59;45.56;98906.47;5061825;28;20500;-80
2023/03/10 00:36:40;;;;;;;1.02;0.80;;;;;;;16.56;45.41;98902.22;5078343;28;20028;-79
2023/03/10 00:39:06;;;;;;;1.08;0.73;;;;;;;16.57;45.55;98901.34;5095325;28;20054;-79
2023/03/10 00:41:35;;;;;;;1.13;0.80;;;;;;;16.56;45.48;98897.03;5077603;28;20042;-79
2023/03/10 00:44:02;;;;;;;1.55;0.80;;;;;;;16.55;45.58;98897.94;5112052;28;20020;-78
2023/03/10 00:46:28;;;;;;;1.00;0.60;;;;;;;16.56;45.71;98893.59;5077396;28;20032;-79
2023/03/10 00:48:54;;;;;;;1.35;0.70;;;;;;;16.55;45.79;98884.97;5095019;28;20069;-79
2023/03/10 00:51:20;;;;;;;0.60;0.50;;;;;;;16.55;45.65;98877.19;5078294;28;20032;-80
2023/03/10 00:53:46;;;;;;;0.80;0.60;;;;;;;16.54;45.63;98883.25;5095320;28;20118;-79
2023/03/10 00:56:18;;;;;;;0.80;0.60;;;;;;;16.54;45.49;98880.66;5091312;28;20039;-79
2023/03/10 00:58:45;;;;;;;1.35;0.68;;;;;;;16.53;45.37;98881.56;5112682;28;20023;-79
2023/03/10 01:01:16;;;;;;;0.60;0.60;;;;;;;16.54;45.49;98885.84;5104350;28;20024;-79
2023/03/10 01:03:42;;;;;;;0.50;0.50;;;;;;;16.54;45.45;98874.63;5098579;28;20012;-78
2023/03/10 01:06:08;;;;;;;0.70;0.60;;;;;;;16.54;45.37;98870.28;5080978;28;20523;-79
2023/03/10 01:08:34;;;;;;;0.73;0.60;;;;;;;16.53;45.41;98867.75;5079829;28;20114;-80
2023/03/10 01:10:59;;;;;;;0.60;0.60;;;;;;;16.53;45.32;98870.34;5097081;28;20035;-79
2023/03/10 01:13:25;;;;;;;0.50;0.50;;;;;;;16.53;45.52;98870.34;5075200;28;20048;-80
2023/03/10 01:15:50;;;;;;;0.52;0.50;;;;;;;16.51;45.46;98862.59;5075685;28;20087;-79
2023/03/10 01:18:16;;;;;;;0.60;0.50;;;;;;;16.51;45.54;98865.19;5058653;28;20024;-80
2023/03/10 01:20:42;;;;;;;1.00;0.50;;;;;;;16.51;45.47;98862.59;5074838;28;20550;-80
2023/03/10 01:23:16;;;;;;;0.60;0.60;;;;;;;16.50;45.61;98858.31;5091869;28;20021;-79
2023/03/10 01:25:42;;;;;;;2.25;0.68;;;;;;;16.51;45.50;98856.56;5064534;28;20025;-79
2023/03/10 01:28:08;;;;;;;0.70;0.60;;;;;;;16.50;45.53;98858.31;5078606;28;20425;-79
2023/03/10 01:30:33;;;;;;;0.50;0.50;;;;;;;16.49;45.57;98853.19;5077436;28;20028;-79
2023/03/10 01:32:58;;;;;;;1.25;0.70;;;;;;;16.50;45.46;98841.88;5043978;28;20050;-79
2023/03/10 01:35:24;;;;;;;0.68;0.50;;;;;;;16.49;45.37;98843.63;5078165;28;20025;-79
2023/03/10 01:37:49;;;;;;;0.60;0.50;;;;;;;16.49;45.54;98838.44;5063379;28;20025;-78
2023/03/10 01:40:17;;;;;;;0.82;0.57;;;;;;;16.49;45.38;98837.59;5059137;28;20490;-79
2023/03/10 01:42:43;;;;;;;0.88;0.60;;;;;;;16.48;45.20;98834.13;5076325;28;20028;-79
2023/03/10 01:45:14;;;;;;;0.63;0.55;;;;;;;16.48;45.53;98838.50;5059951;28;20025;-79
2023/03/10 01:47:41;;;;;;;0.80;0.60;;;;;;;16.45;45.54;98824.72;5077451;28;20472;-78
2023/03/10 01:50:17;;;;;;;0.80;0.60;;;;;;;16.49;45.45;98832.41;5060330;28;20035;-77
2023/03/10 01:52:47;;;;;;;0.52;0.50;;;;;;;16.47;45.48;98827.28;5055547;28;20033;-79
2023/03/10 01:55:20;;;;;;;0.80;0.47;;;;;;;16.49;45.50;98822.03;5077706;28;20032;-79
2023/03/10 01:57:52;;;;;;;0.68;0.40;;;;;;;16.47;45.24;98822.06;5080748;28;20436;-79
2023/03/10 02:00:20;;;;;;;0.82;0.55;;;;;;;16.48;45.33;98820.31;5078988;28;20025;-80
2023/03/10 02:03:11;;;;;;;1.00;0.60;;;;;;;16.50;45.47;98818.50;5094599;28;20470;-80
2023/03/10 02:05:40;;;;;;;0.50;0.50;;;;;;;16.48;45.44;98821.16;5077899;28;20154;-80
2023/03/10 02:08:08;;;;;;;0.98;0.68;;;;;;;16.50;45.46;98819.34;5077240;28;20032;-80
2023/03/10 02:10:33;;;;;;;0.70;0.60;;;;;;;16.50;45.35;98818.50;5077409;28;20111;-80
2023/03/10 02:12:59;;;;;;;0.60;0.50;;;;;;;16.49;45.59;98817.69;5076663;28;20132;-80
2023/03/10 02:15:24;;;;;;;0.50;0.50;;;;;;;16.51;45.51;98817.63;5042906;28;20032;-80
2023/03/10 02:17:51;;;;;;;0.45;0.45;;;;;;;16.50;45.83;98814.16;5076170;28;20021;-80
2023/03/10 02:20:39;;;;;;;0.38;0.38;;;;;;;16.53;45.58;98808.03;5091644;28;20446;-79
2023/03/10 02:23:05;;;;;;;0.65;0.40;;;;;;;16.52;45.67;98809.75;5074298;28;20467;-80
2023/03/10 02:25:36;;;;;;;0.73;0.40;;;;;;;16.53;45.48;98810.63;5074226;28;20040;-79
2023/03/10 02:28:03;;;;;;;0.43;0.43;;;;;;;16.52;45.69;98807.16;5074465;28;20067;-80
2023/03/10 02:30:36;;;;;;;0.57;0.45;;;;;;;16.51;45.45;98792.50;5058038;28;20092;-80
2023/03/10 02:33:06;;;;;;;0.70;0.50;;;;;;;16.53;45.61;98797.66;5076059;28;20036;-80
2023/03/10 02:35:32;;;;;;;1.42;0.40;;;;;;;16.53;45.67;98790.69;5075694;28;20032;-79
2023/03/10 02:37:58;;;;;;;0.40;0.35;;;;;;;16.53;45.59;98788.09;5040678;28;20513;-79
2023/03/10 02:40:54;;;;;;;0.40;0.40;;;;;;;16.53;45.76;98797.66;5077107;28;20032;-79
2023/03/10 02:43:31;;;;;;;0.40;0.40;;;;;;;16.53;45.88;98801.09;5040818;28;20120;-79
2023/03/10 02:46:03;;;;;;;0.40;0.30;;;;;;;16.53;45.61;98795.06;5077712;28;20020;-79
2023/03/10 02:48:32;;;;;;;0.73;0.40;;;;;;;16.52;45.59;98786.41;5076889;28;20027;-79
2023/03/10 02:51:00;;;;;;;1.25;0.50;;;;;;;16.52;45.82;98786.41;5076257;28;20029;-79
2023/03/10 02:53:27;;;;;;;0.93;0.50;;;;;;;16.53;45.73;98775.13;5075979;28;20026;-79
2023/03/10 02:55:54;;;;;;;2.35;0.40;;;;;;;16.53;45.74;98785.50;5059008;28;20028;-79
2023/03/10 02:58:21;;;;;;;0.60;0.50;;;;;;;16.54;45.65;98787.19;5075271;28;20588;-80
2023/03/10 03:00:48;;;;;;;0.95;0.50;;;;;;;16.55;45.86;98780.22;5075559;28;20044;-80
2023/03/10 03:03:15;;;;;;;0.55;0.40;;;;;;;16.53;45.82;98777.72;5075525;28;20074;-80
2023/03/10 03:05:41;;;;;;;0.60;0.47;;;;;;;16.54;45.77;98786.34;5058482;28;20029;-79
2023/03/10 03:08:07;;;;;;;0.40;0.40;;;;;;;16.53;45.75;98777.72;5058033;28;20024;-79
2023/03/10 03:10:33;;;;;;;0.77;0.50;;;;;;;16.53;45.84;98772.53;5058125;28;20032;-80
2023/03/10 03:12:59;;;;;;;0.43;0.40;;;;;;;16.54;45.81;98763.81;5057748;28;20052;-79
2023/03/10 03:15:25;;;;;;;0.63;0.50;;;;;;;16.53;45.88;98767.31;5058084;28;20033;-79
2023/03/10 03:17:50;;;;;;;0.57;0.50;;;;;;;16.52;45.73;98778.59;5091419;28;20057;-80
2023/03/10 03:20:20;;;;;;;0.73;0.50;;;;;;;16.53;45.88;98784.66;5074642;28;20074;-79
2023/03/10 03:22:46;;;;;;;0.40;0.40;;;;;;;16.53;45.82;98785.50;5057830;28;20027;-79
2023/03/10 03:25:14;;;;;;;0.90;0.45;;;;;;;16.54;45.88;98789.78;5074477;28;20025;-79
2023/03/10 03:27:40;;;;;;;1.00;0.40;;;;;;;16.53;46.00;98785.50;5074697;28;20471;-79
2023/03/10 03:30:12;;;;;;;0.55;0.40;;;;;;;16.55;45.80;98793.22;5057842;28;20035;-80
2023/03/10 03:32:38;;;;;;;1.58;0.50;;;;;;;16.54;45.96;98794.13;5074299;28;20048;-79
2023/03/10 03:35:07;;;;;;;0.98;0.50;;;;;;;16.54;45.88;98782.00;5074319;28;20462;-79
2023/03/10 03:37:32;;;;;;;0.90;0.50;;;;;;;16.53;45.95;98774.28;5089973;28;20028;-80
2023/03/10 03:39:58;;;;;;;0.90;0.57;;;;;;;16.53;45.80;98769.94;5075522;28;20032;-80
2023/03/10 03:42:23;;;;;;;0.50;0.40;;;;;;;16.53;46.03;98772.53;5087085;28;20028;-79
2023/03/10 03:44:48;;;;;;;0.38;0.25;;;;;;;16.52;45.98;98778.59;5064334;28;20405;-79
2023/03/10 03:47:14;;;;;;;0.75;0.30;;;;;;;16.54;46.35;98784.59;5082689;28;20040;-79
2023/03/10 03:49:39;;;;;;;0.40;0.32;;;;;;;16.52;46.18;98767.38;5085465;28;20107;-79
2023/03/10 03:52:06;;;;;;;0.30;0.30;;;;;;;16.52;45.84;98744.84;5083836;28;20088;-79
2023/03/10 03:54:32;;;;;;;0.52;0.45;;;;;;;16.49;46.00;98731.16;5080707;28;20024;-79
2023/03/10 03:56:57;;;;;;;0.80;0.50;;;;;;;16.49;45.90;98742.38;5062994;28;20025;-79
2023/03/10 03:59:23;;;;;;;0.68;0.55;;;;;;;16.49;46.12;98749.34;5078667;28;20381;-79
2023/03/10 04:01:49;;;;;;;0.93;0.50;;;;;;;16.49;45.93;98750.19;5044637;28;20025;-79
2023/03/10 04:04:14;;;;;;;0.47;0.40;;;;;;;16.49;45.93;98759.72;5077146;28;20019;-79
2023/03/10 04:06:40;;;;;;;0.52;0.50;;;;;;;16.47;45.97;98754.56;5059916;28;20035;-80
2023/03/10 04:09:06;;;;;;;0.50;0.50;;;;;;;16.48;46.05;98756.25;5059620;28;20036;-79
2023/03/10 04:11:31;;;;;;;0.50;0.40;;;;;;;16.46;45.86;98755.47;5058209;28;20036;-79
2023/03/10 04:13:57;;;;;;;0.82;0.43;;;;;;;16.45;46.02;98746.84;5057910;28;20558;-79
2023/03/10 04:16:22;;;;;;;0.57;0.50;;;;;;;16.45;45.88;98749.44;5058295;28;20056;-80
2023/03/10 04:18:48;;;;;;;0.77;0.40;;;;;;;16.44;46.15;98752.09;5057795;28;20119;-79
2023/03/10 04:21:13;;;;;;;0.75;0.47;;;;;;;16.43;45.88;98751.25;5057531;28;20476;-79
2023/03/10 04:23:41;;;;;;;0.40;0.40;;;;;;;16.42;45.71;98757.34;5074455;28;20421;-80
2023/03/10 04:26:09;;;;;;;0.45;0.40;;;;;;;16.43;45.96;98760.78;5058181;28;20036;-79
2023/03/10 04:28:35;;;;;;;0.75;0.50;;;;;;;16.41;45.87;98768.63;5072755;28;20368;-80
2023/03/10 04:31:01;;;;;;;0.50;0.40;;;;;;;16.43;46.00;98760.78;5072271;28;20032;-80
2023/03/10 04:33:26;;;;;;;0.63;0.40;;;;;;;16.45;46.06;98758.97;5072687;28;20493;-79
2023/03/10 04:35:52;;;;;;;0.47;0.40;;;;;;;16.46;46.13;98763.25;5039310;28;20033;-79
2023/03/10 04:38:18;;;;;;;0.40;0.40;;;;;;;16.45;45.90;98757.22;5039448;28;20367;-79
2023/03/10 04:40:43;;;;;;;0.65;0.50;;;;;;;16.46;46.01;98750.28;5055819;28;20031;-79
2023/03/10 04:43:09;;;;;;;1.05;0.40;;;;;;;16.47;45.96;98756.34;5073712;28;20378;-79
2023/03/10 04:45:35;;;;;;;0.85;0.30;;;;;;;16.46;46.18;98750.28;5039119;28;20078;-79
2023/03/10 04:48:00;;;;;;;0.55;0.50;;;;;;;16.47;45.93;98744.19;5072346;28;20036;-78
2023/03/10 04:50:26;;;;;;;0.82;0.50;;;;;;;16.46;45.88;98745.06;5039484;28;20034;-79
2023/03/10 04:52:51;;;;;;;0.85;0.50;;;;;;;16.48;45.91;98737.25;5039949;28;20033;-78
2023/03/10 04:55:17;;;;;;;0.30;0.30;;;;;;;16.45;45.90;98728.66;5073078;28;20429;-79
2023/03/10 04:57:42;;;;;;;0.60;0.40;;;;;;;16.47;46.05;98714.78;5073349;28;20025;-79
2023/03/10 05:00:11;;;;;;;0.50;0.40;;;;;;;16.47;45.58;98720.00;5041095;28;20059;-79
2023/03/10 05:02:36;;;;;;;0.30;0.30;;;;;;;16.47;45.87;98723.41;5077152;28;20025;-79
2023/03/10 05:05:02;;;;;;;1.33;0.50;;;;;;;16.48;45.85;98742.44;5059971;28;20135;-79
2023/03/10 05:07:27;;;;;;;0.45;0.40;;;;;;;16.48;45.71;98748.47;5061487;28;20025;-78
2023/03/10 05:09:53;;;;;;;0.30;0.30;;;;;;;16.48;45.92;98758.84;5042895;28;20086;-80
2023/03/10 05:12:19;;;;;;;0.77;0.35;;;;;;;16.47;46.12;98759.78;5075616;28;20045;-79
2023/03/10 05:14:44;;;;;;;0.20;0.20;;;;;;;16.48;45.96;98755.41;5075247;28;20041;-79
2023/03/10 05:17:10;;;;;;;0.50;0.30;;;;;;;16.49;46.04;98754.53;5042142;28;20029;-79
2023/03/10 05:19:36;;;;;;;0.40;0.30;;;;;;;16.49;45.83;98749.34;5077383;28;20021;-77
2023/03/10 05:22:03;;;;;;;0.70;0.30;;;;;;;16.48;45.96;98758.00;5077642;28;20520;-77
2023/03/10 05:24:28;;;;;;;0.65;0.32;;;;;;;16.49;45.61;98749.34;5077697;28;20020;-78
2023/03/10 05:26:54;;;;;;;0.43;0.40;;;;;;;16.49;45.95;98744.16;5060549;28;20028;-79
2023/03/10 05:29:19;;;;;;;0.30;0.30;;;;;;;16.50;45.70;98738.03;5076956;28;20020;-79
2023/03/10 05:31:45;;;;;;;0.30;0.30;;;;;;;16.49;45.73;98720.78;5078502;28;20119;-78
2023/03/10 05:34:12;;;;;;;0.40;0.40;;;;;;;16.49;45.89;98728.56;5060376;28;20032;-78
2023/03/10 05:36:38;;;;;;;0.55;0.52;;;;;;;16.48;45.88;98730.28;5060290;28;20124;-79
2023/03/10 05:39:04;;;;;;;0.30;0.30;;;;;;;16.49;45.55;98738.94;5077383;28;20052;-78
2023/03/10 05:41:34;;;;;;;0.32;0.30;;;;;;;16.48;46.03;98739.84;5079610;28;20458;-78
2023/03/10 05:44:00;;;;;;;0.40;0.32;;;;;;;16.49;45.96;98744.97;5063891;28;20033;-78
2023/03/10 05:46:25;;;;;;;0.40;0.40;;;;;;;16.48;45.87;98735.47;5097217;28;20029;-79
2023/03/10 05:48:51;;;;;;;0.30;0.30;;;;;;;16.48;45.95;98748.47;5045222;28;20032;-78
2023/03/10 05:51:16;;;;;;;0.30;0.30;;;;;;;16.49;45.85;98744.97;5060350;28;20534;-78
2023/03/10 05:53:42;;;;;;;0.20;0.20;;;;;;;16.48;45.92;98743.28;5058588;28;20036;-77
2023/03/10 05:56:10;;;;;;;0.35;0.35;;;;;;;16.48;45.95;98745.88;5076680;28;20028;-78
2023/03/10 05:58:36;;;;;;;0.50;0.32;;;;;;;16.49;46.01;98742.38;5075453;28;20025;-78
2023/03/10 06:01:02;;;;;;;1.85;0.70;;;;;;;16.56;46.02;98745.59;5075479;28;20494;-78
2023/03/10 06:03:28;;;;;;;5.15;1.30;;;;;;;16.72;46.02;98745.84;5076314;28;20024;-74
2023/03/10 06:05:55;;;;;;;3.22;1.38;;;;;;;16.79;46.16;98747.31;5058357;28;20025;-74
2023/03/10 06:08:22;;;;;;;3.08;1.17;;;;;;;16.83;45.93;98751.47;5075774;28;20035;-75
2023/03/10 06:10:47;;;;;;;3.45;1.00;;;;;;;16.87;45.75;98755.66;5043643;28;20029;-77
2023/03/10 06:13:13;;;;;;;14.65;2.90;;;;;;;16.90;45.90;98755.53;5076042;28;20044;-79
2023/03/10 06:15:39;;;;;;;5.80;2.42;;;;;;;16.98;45.69;98747.44;5075452;28;20021;-80
2023/03/10 06:18:05;;;;;;;5.68;2.05;;;;;;;17.00;46.09;98751.66;5082696;28;20047;-77
2023/03/10 06:20:30;;;;;;;5.82;1.70;;;;;;;17.00;46.00;98741.25;5066699;28;20348;-77
2023/03/10 06:22:55;;;;;;;6.60;1.88;;;;;;;16.99;45.97;98743.94;5064595;28;20040;-77
2023/03/10 06:25:21;;;;;;;3.50;1.60;;;;;;;16.98;46.01;98744.81;5061333;28;20036;-76
2023/03/10 06:27:46;;;;;;;5.20;1.58;;;;;;;16.98;45.90;98737.03;5061473;28;20021;-77
2023/03/10 06:30:13;;;;;;;3.25;1.45;;;;;;;16.98;46.15;98735.28;5093620;28;20469;-79
2023/03/10 06:32:39;;;;;;;3.35;1.27;;;;;;;16.97;45.96;98728.41;5075438;28;20036;-77
2023/03/10 06:35:05;;;;;;;5.00;1.50;;;;;;;17.00;46.01;98737.81;5075073;28;20437;-79
2023/03/10 06:37:30;;;;;;;3.75;1.30;;;;;;;17.00;46.02;98737.81;5076760;28;20475;-78
2023/03/10 06:39:55;;;;;;;4.32;1.25;;;;;;;17.00;45.85;98738.66;5042857;28;20048;-78
2023/03/10 06:42:21;;;;;;;3.63;1.00;;;;;;;17.01;45.97;98742.13;5075138;28;20546;-78
2023/03/10 06:44:48;;;;;;;5.35;1.30;;;;;;;17.00;45.79;98740.41;5041879;28;20025;-79
2023/03/10 06:47:14;;;;;;;4.63;1.10;;;;;;;17.01;45.93;98744.72;5042640;28;20098;-80
2023/03/10 06:49:39;;;;;;;1.83;0.95;;;;;;;17.03;45.76;98750.72;5092541;28;20475;-78
2023/03/10 06:52:05;;;;;;;3.10;1.35;;;;;;;17.01;46.05;98748.16;5041637;28;20071;-79
2023/03/10 06:54:30;;;;;;;5.45;1.20;;;;;;;17.02;45.89;98751.59;5058517;28;20032;-78
2023/03/10 06:56:56;;;;;;;2.72;1.05;;;;;;;17.03;46.02;98761.09;5058182;28;20035;-80
2023/03/10 06:59:21;;;;;;;2.83;1.10;;;;;;;17.04;45.71;98755.81;5044654;28;20386;-78
2023/03/10 07:01:47;;;;;;;2.10;1.13;;;;;;;17.05;46.03;98764.50;5079543;28;20051;-80
2023/03/10 07:04:13;;;;;;;4.30;1.20;;;;;;;17.06;45.96;98766.16;5075023;28;20020;-77
2023/03/10 07:06:38;;;;;;;1.92;1.00;;;;;;;17.05;46.10;98757.53;5058139;28;20123;-77
2023/03/10 07:09:05;;;;;;;2.03;0.95;;;;;;;17.06;45.93;98772.19;5074580;28;20028;-78
2023/03/10 07:11:31;;;;;;;2.95;0.93;;;;;;;17.06;45.69;98763.56;5074322;28;20024;-78
2023/03/10 07:13:57;;;;;;;1.85;1.00;;;;;;;17.05;45.76;98769.69;5066255;28;20103;-78
2023/03/10 07:16:23;;;;;;;2.45;0.95;;;;;;;17.05;45.90;98765.31;5037952;28;20033;-78
2023/03/10 07:18:48;;;;;;;1.48;0.88;;;;;;;17.04;45.77;98762.78;5019188;28;20471;-79
2023/03/10 07:21:24;;;;;;;2.45;0.93;;;;;;;17.06;45.63;98771.38;5004329;28;20115;-79
2023/03/10 07:23:51;;;;;;;2.05;0.93;;;;;;;17.05;45.87;98767.09;5020894;28;20387;-78
2023/03/10 07:26:17;;;;;;;1.90;0.82;;;;;;;17.04;45.61;98776.59;5020294;28;20053;-79
2023/03/10 07:28:43;;;;;;;1.67;0.88;;;;;;;17.04;45.78;98779.22;5020177;28;20056;-79
2023/03/10 07:31:11;;;;;;;3.17;0.80;;;;;;;17.04;45.87;98779.22;5020868;28;20029;-78
2023/03/10 07:33:37;;;;;;;2.53;0.90;;;;;;;17.04;45.69;98787.00;5056134;28;20531;-78
2023/03/10 07:36:12;;;;;;;2.25;0.80;;;;;;;17.05;45.75;98788.72;5039093;28;20494;-79
2023/03/10 07:38:37;;;;;;;2.25;0.85;;;;;;;17.06;45.65;98785.19;5038869;28;20064;-78
2023/03/10 07:41:08;;;;;;;1.10;0.80;;;;;;;17.05;45.48;98787.88;5039168;28;20086;-78
2023/03/10 07:43:33;;;;;;;1.45;0.70;;;;;;;17.06;45.44;98790.38;5038644;28;20425;-78
2023/03/10 07:45:59;;;;;;;1.48;0.82;;;;;;;17.08;45.65;98781.69;5004959;28;20029;-79
2023/03/10 07:48:24;;;;;;;1.80;0.68;;;;;;;17.07;45.60;98783.44;5021297;28;20025;-79
2023/03/10 07:50:58;;;;;;;1.00;0.70;;;;;;;17.10;45.40;98792.88;5021060;28;20037;-77
2023/03/10 07:53:23;;;;;;;;;;;;;;;17.10;45.29;98798.09;5037652;28;20075;-79
2023/03/10 07:55:49;;;;;;;1.30;0.70;;;;;;;17.09;45.50;98797.22;5036856;28;19909;-78
2023/03/10 07:58:14;;;;;;;1.40;0.70;;;;;;;17.10;45.21;98798.91;5021300;28;20128;-78
2023/03/10 08:00:39;;;;;;;1.77;0.90;;;;;;;17.10;45.44;98796.31;5022985;28;20032;-76
2023/03/10 08:03:05;;;;;;;3.60;0.90;;;;;;;17.10;45.28;98790.28;5023793;28;20104;-77
2023/03/10 08:05:31;;;;;;;1.88;0.80;;;;;;;17.13;45.27;98792.75;5023256;28;20055;-76
2023/03/10 08:08:00;;;;;;;1.08;0.68;;;;;;;17.14;45.09;98802.25;5022787;28;20045;-77
2023/03/10 08:10:25;;;;;;;2.13;0.90;;;;;;;17.14;45.44;98794.47;5039091;28;20035;-78
2023/03/10 08:12:53;;;;;;;0.85;0.60;;;;;;;17.15;44.93;98799.56;5022881;28;20478;-76
2023/03/10 08:15:18;;;;;;;1.35;0.80;;;;;;;17.16;45.08;98795.22;5038147;28;20052;-77
2023/03/10 08:17:48;;;;;;;1.50;0.73;;;;;;;17.15;45.06;98796.13;5004360;28;20036;-78
2023/03/10 08:20:16;;;;;;;1.23;0.73;;;;;;;17.15;45.53;98793.53;5038195;28;20024;-76
2023/03/10 08:22:41;;;;;;;1.52;0.70;;;;;;;17.14;45.21;98797.06;5005675;28;20483;-77
2023/03/10 08:25:14;;;;;;;1.10;0.60;;;;;;;17.14;45.38;98807.44;5005024;28;20037;-77
2023/03/10 08:27:42;;;;;;;1.25;0.55;;;;;;;17.14;44.96;98804.84;5022771;28;20024;-76
2023/03/10 08:30:14;;;;;;;0.82;0.55;;;;;;;17.14;45.22;98802.25;5037114;28;20033;-77
2023/03/10 08:32:44;;;;;;;0.60;0.50;;;;;;;17.15;45.01;98799.56;5037361;28;20386;-77
2023/03/10 08:35:09;;;;;;;1.23;0.68;;;;;;;17.16;44.97;98808.22;5038714;28;20021;-78
2023/03/10 08:37:37;;;;;;;1.55;0.70;;;;;;;17.16;45.12;98808.22;5024505;28;20372;-77
2023/03/10 08:40:06;;;;;;;1.30;0.70;;;;;;;17.16;45.20;98816.00;5025456;28;20033;-77
2023/03/10 08:42:35;;;;;;;0.88;0.60;;;;;;;17.17;45.16;98815.13;5023834;28;20025;-79
2023/03/10 08:45:00;;;;;;;1.70;0.90;;;;;;;17.17;45.12;98809.91;5024486;28;20055;-80
2023/03/10 08:47:26;;;;;;;0.82;0.60;;;;;;;17.17;45.05;98812.50;5040788;28;20033;-79
2023/03/10 08:49:51;;;;;;;0.75;0.57;;;;;;;17.17;45.08;98825.50;5025408;28;20024;-79
2023/03/10 08:52:19;;;;;;;0.93;0.60;;;;;;;17.17;45.27;98836.75;5024331;28;20032;-79
2023/03/10 08:54:44;;;;;;;0.85;0.60;;;;;;;17.17;45.05;98831.53;5026131;28;20116;-77
2023/03/10 08:57:17;;;;;;;0.73;0.60;;;;;;;17.18;45.00;98834.97;5014545;28;20056;-77
2023/03/10 08:59:42;;;;;;;0.82;0.55;;;;;;;17.18;44.81;98840.19;5030761;28;20021;-77
2023/03/10 09:02:14;;;;;;;0.90;0.50;;;;;;;17.18;44.88;98837.59;5027931;28;20035;-80
2023/03/10 09:04:40;;;;;;;0.50;0.40;;;;;;;17.17;44.81;98843.69;5048252;28;20025;-80
2023/03/10 09:07:05;;;;;;;0.75;0.50;;;;;;;17.17;45.15;98846.31;5060682;28;20020;-81
2023/03/10 09:09:31;;;;;;;0.75;0.55;;;;;;;17.16;45.30;98839.41;5048166;28;20382;-81
2023/03/10 09:11:59;;;;;;;0.77;0.40;;;;;;;17.15;45.08;98835.97;5047638;28;20061;-80
2023/03/10 09:14:38;;;;;;;1.02;0.60;;;;;;;17.15;45.12;98833.34;5071330;28;20131;-81
2023/03/10 09:17:09;;;;;;;1.17;0.40;;;;;;;17.16;45.15;98829.00;5079886;28;20036;-78
2023/03/10 09:19:39;;;;;;;1.27;0.77;;;;;;;17.18;44.97;98837.59;5076767;28;20047;-78
2023/03/10 09:22:05;;;;;;;1.50;0.50;;;;;;;17.18;44.87;98838.47;5060064;28;20031;-78
2023/03/10 09:24:32;;;;;;;0.57;0.40;;;;;;;17.21;45.14;98845.28;5060169;28;20111;-77
2023/03/10 09:26:58;;;;;;;0.80;0.40;;;;;;;17.21;44.93;98853.91;5044724;28;20028;-78
2023/03/10 09:29:31;;;;;;;4.50;0.68;;;;;;;17.21;45.20;98856.50;5060017;28;20474;-77
2023/03/10 09:31:56;;;;;;;1.23;0.60;;;;;;;17.21;44.66;98859.13;5076969;28;20112;-78
2023/03/10 09:34:29;;;;;;;2.58;0.52;;;;;;;17.20;45.18;98861.75;5042537;28;20115;-77
2023/03/10 09:36:54;;;;;;;1.00;0.50;;;;;;;17.20;44.88;98866.97;5045252;28;20398;-78
2023/03/10 09:39:19;;;;;;;0.52;0.40;;;;;;;17.20;45.06;98864.38;5043046;28;20039;-78
2023/03/10 09:42:14;;;;;;;0.82;0.43;;;;;;;17.19;45.19;98863.53;5076281;28;20059;-78
2023/03/10 09:44:54;;;;;;;1.17;0.50;;;;;;;17.20;44.97;98874.75;5054073;28;20036;-76
2023/03/10 09:47:35;;;;;;;0.75;0.55;;;;;;;17.21;45.14;98885.09;5075441;28;20037;-76
2023/03/10 09:50:18;;;;;;;0.77;0.30;;;;;;;17.21;45.10;98884.25;5077155;28;20028;-77
2023/03/10 09:52:55;;;;;;;0.82;0.50;;;;;;;17.21;45.02;98882.50;5075582;28;20052;-78
2023/03/10 09:55:36;;;;;;;1.10;0.60;;;;;;;17.22;45.18;98885.94;5075470;28;20094;-77
2023/03/10 09:58:02;;;;;;;1.00;0.57;;;;;;;17.21;44.95;98903.31;5075406;28;20111;-76
2023/03/10 10:00:34;;;;;;;0.98;0.40;;;;;;;17.22;44.90;98904.13;5075144;28;20039;-78
2023/03/10 10:03:16;;;;;;;0.95;0.65;;;;;;;17.22;45.00;98899.81;5076585;28;20383;-77
2023/03/10 10:05:45;;;;;;;1.00;0.50;;;;;;;17.28;44.81;98901.31;5077021;28;20508;-79
2023/03/10 10:08:21;;;;;;;2.42;0.40;;;;;;;17.47;45.05;98907.47;5077355;28;20483;-79
2023/03/10 10:10:53;;;;;;;0.60;0.40;;;;;;;17.48;45.07;98909.19;5076847;28;20436;-78
2023/03/10 10:13:36;;;;;;;;;;;;;;;;;;;;;
2023/03/10 10:16:25;;;;;;;1.25;0.47;;;;;;;17.41;45.04;98905.13;5058130;28;20049;-78
2023/03/10 10:19:00;;;;;;;4.07;0.60;;;;;;;17.34;45.20;98919.28;5038363;28;20115;-80
2023/03/10 10:21:47;;;;;;;3.05;0.60;;;;;;;17.35;44.87;98925.31;5038374;28;20031;-80
2023/03/10 10:24:13;;;;;;;0.70;0.40;;;;;;;17.33;45.03;98921.94;5031686;28;20049;-80
2023/03/10 10:26:38;;;;;;;0.73;0.57;;;;;;;17.33;44.77;98920.16;5023887;28;20484;-79
2023/03/10 10:29:21;;;;;;;0.82;0.40;;;;;;;17.34;44.84;98926.22;5021647;28;20115;-79
2023/03/10 10:32:07;;;;;;;0.82;0.50;;;;;;;17.32;44.96;98928.88;5041987;28;20106;-79
2023/03/10 10:34:33;;;;;;;0.55;0.50;;;;;;;17.34;44.65;98936.63;5043555;28;20438;-77
2023/03/10 10:36:59;;;;;;;0.65;0.50;;;;;;;17.32;44.83;98939.28;5037172;28;20119;-76
2023/03/10 10:39:30;;;;;;;0.80;0.68;;;;;;;17.32;44.67;98935.84;5023192;28;20056;-77
2023/03/10 10:42:16;;;;;;;0.93;0.60;;;;;;;17.34;44.53;98945.28;5032311;28;20021;-78
2023/03/10 10:44:43;;;;;;;2.80;0.55;;;;;;;17.36;44.78;98947.81;5036786;28;20033;-79
2023/03/10 10:47:33;;;;;;;0.82;0.60;;;;;;;17.34;44.60;98945.28;5021165;28;20128;-76
2023/03/10 10:50:34;;;;;;;0.52;0.50;;;;;;;17.34;44.73;98949.63;5024097;28;20029;-79
2023/03/10 10:53:12;;;;;;;0.95;0.50;;;;;;;17.33;44.74;98951.38;5019407;28;20048;-79
2023/03/10 10:55:39;;;;;;;0.90;0.60;;;;;;;17.33;44.86;98956.56;5035575;28;20032;-79
2023/03/10 10:58:24;;;;;;;0.45;0.43;;;;;;;17.35;44.80;98957.34;5018528;28;20021;-79
2023/03/10 11:01:03;;;;;;;0.50;0.40;;;;;;;17.34;44.54;98960.88;5018813;28;20026;-79
2023/03/10 11:03:31;;;;;;;1.10;0.60;;;;;;;17.36;44.59;98972.06;5018771;28;20026;-80
2023/03/10 11:05:57;;;;;;;0.85;0.70;;;;;;;17.39;44.59;98984.09;5037429;28;20025;-79
2023/03/10 11:08:25;;;;;;;0.80;0.60;;;;;;;17.38;44.29;98980.66;5019324;28;20032;-79
2023/03/10 11:10:59;;;;;;;0.88;0.60;;;;;;;17.39;44.20;98981.50;5034581;28;20025;-79
2023/03/10 11:13:34;;;;;;;0.63;0.52;;;;;;;17.38;44.50;98978.06;5018720;28;20036;-79
2023/03/10 11:16:14;;;;;;;1.00;0.60;;;;;;;17.40;44.30;98981.44;5049385;28;20059;-79
2023/03/10 11:18:46;;;;;;;0.80;0.50;;;;;;;17.40;44.43;98978.00;5055648;28;20067;-78
2023/03/10 11:21:16;;;;;;;0.70;0.55;;;;;;;17.38;44.38;98991.06;5054706;28;20112;-78
2023/03/10 11:24:00;;;;;;;0.52;0.40;;;;;;;17.42;44.51;98996.97;5055694;28;20021;-79
2023/03/10 11:26:36;;;;;;;0.70;0.50;;;;;;;17.42;44.60;98984.84;5072642;28;20036;-79
2023/03/10 11:29:21;;;;;;;0.80;0.50;;;;;;;17.44;44.23;98980.41;5056833;28;20025;-79
2023/03/10 11:32:11;;;;;;;0.60;0.50;;;;;;;17.48;44.14;98984.59;5071604;28;20064;-78
2023/03/10 11:34:48;;;;;;;1.08;0.50;;;;;;;17.51;44.08;98969.75;5055062;28;20033;-77
2023/03/10 11:37:28;;;;;;;0.63;0.50;;;;;;;17.51;44.20;98973.22;5055877;28;20052;-77
2023/03/10 11:40:18;;;;;;;0.70;0.50;;;;;;;17.51;44.10;98982.75;5072590;28;20032;-78